Map

Track Data

SID SEASON NUMBER BASIN SUBBASIN NAME ISO_TIME NATURE LAT LON WMO_WIND WMO_PRES WMO_AGENCY TRACK_TYPE DIST2LAND LANDFALL IFLAG USA_AGENCY USA_ATCF_ID USA_LAT USA_LON USA_RECORD USA_STATUS USA_WIND USA_PRES USA_SSHS USA_R34_NE USA_R34_SE USA_R34_SW USA_R34_NW USA_R50_NE USA_R50_SE USA_R50_SW USA_R50_NW USA_R64_NE USA_R64_SE USA_R64_SW USA_R64_NW USA_POCI USA_ROCI USA_RMW USA_EYE TOKYO_LAT TOKYO_LON TOKYO_GRADE TOKYO_WIND TOKYO_PRES TOKYO_R50_DIR TOKYO_R50_LONG TOKYO_R50_SHORT TOKYO_R30_DIR TOKYO_R30_LONG TOKYO_R30_SHORT TOKYO_LAND CMA_LAT CMA_LON CMA_CAT CMA_WIND CMA_PRES HKO_LAT HKO_LON HKO_CAT HKO_WIND HKO_PRES NEWDELHI_LAT NEWDELHI_LON NEWDELHI_GRADE NEWDELHI_WIND NEWDELHI_PRES NEWDELHI_CI NEWDELHI_DP NEWDELHI_POCI REUNION_LAT REUNION_LON REUNION_TYPE REUNION_WIND REUNION_PRES REUNION_TNUM REUNION_CI REUNION_RMW REUNION_R34_NE REUNION_R34_SE REUNION_R34_SW REUNION_R34_NW REUNION_R50_NE REUNION_R50_SE REUNION_R50_SW REUNION_R50_NW REUNION_R64_NE REUNION_R64_SE REUNION_R64_SW REUNION_R64_NW BOM_LAT BOM_LON BOM_TYPE BOM_WIND BOM_PRES BOM_TNUM BOM_CI BOM_RMW BOM_R34_NE BOM_R34_SE BOM_R34_SW BOM_R34_NW BOM_R50_NE BOM_R50_SE BOM_R50_SW BOM_R50_NW BOM_R64_NE BOM_R64_SE BOM_R64_SW BOM_R64_NW BOM_ROCI BOM_POCI BOM_EYE BOM_POS_METHOD BOM_PRES_METHOD NADI_LAT NADI_LON NADI_CAT NADI_WIND NADI_PRES WELLINGTON_LAT WELLINGTON_LON WELLINGTON_WIND WELLINGTON_PRES DS824_LAT DS824_LON DS824_STAGE DS824_WIND DS824_PRES TD9636_LAT TD9636_LON TD9636_STAGE TD9636_WIND TD9636_PRES TD9635_LAT TD9635_LON TD9635_WIND TD9635_PRES TD9635_ROCI NEUMANN_LAT NEUMANN_LON NEUMANN_CLASS NEUMANN_WIND NEUMANN_PRES MLC_LAT MLC_LON MLC_CLASS MLC_WIND MLC_PRES USA_GUST BOM_GUST BOM_GUST_PER REUNION_GUST REUNION_GUST_PER USA_SEAHGT USA_SEARAD_NE USA_SEARAD_SE USA_SEARAD_SW USA_SEARAD_NW STORM_SPEED STORM_DIR
1862284S04059 1863 25 SI MM NOT_NAMED 1862-10-11 06:00:00 NR -3.60000 59.0000 reunion main 1430 1414 _____O________ -1 -3.60000 59.0000 99 9.90000 2 233
1862284S04059 1863 25 SI MM NOT_NAMED 1862-10-11 09:00:00 NR -3.67513 58.9042 main 1414 1406 _____P________ -1 -3.67513 58.9042 99 2 232
1862284S04059 1863 25 SI MM NOT_NAMED 1862-10-11 12:00:00 NR -3.75144 58.8045 main 1398 1390 _____P________ -1 -3.75144 58.8045 99 3 233
1862284S04059 1863 25 SI MM NOT_NAMED 1862-10-11 15:00:00 NR -3.83010 58.6968 main 1390 1374 _____P________ -1 -3.83010 58.6968 99 3 235
1862284S04059 1863 25 SI MM NOT_NAMED 1862-10-11 18:00:00 NR -3.91229 58.5772 main 1374 1351 _____P________ -1 -3.91229 58.5772 99 3 236
1862284S04059 1863 25 SI MM NOT_NAMED 1862-10-11 21:00:00 NR -3.99921 58.4417 main 1351 1335 _____P________ -1 -3.99921 58.4417 99 3 238
1862284S04059 1863 25 SI MM NOT_NAMED 1862-10-12 00:00:00 NR -4.09201 58.2864 main 1335 1311 _____P________ -1 -4.09201 58.2864 99 4 240
1862284S04059 1863 25 SI MM NOT_NAMED 1862-10-12 03:00:00 NR -4.19189 58.1071 main 1311 1287 _____P________ -1 -4.19189 58.1071 99 4 242
1862284S04059 1863 25 SI MM NOT_NAMED 1862-10-12 06:00:00 NR -4.30000 57.9000 reunion main 1287 1263 _____O________ -1 -4.30000 57.9000 99 9.90000 5 243
1862284S04059 1863 25 SI MM NOT_NAMED 1862-10-12 09:00:00 NR -4.41692 57.6628 main 1263 1232 _____P________ -1 -4.41692 57.6628 99 6 244
1862284S04059 1863 25 SI MM NOT_NAMED 1862-10-12 12:00:00 NR -4.54087 57.4008 main 1232 1193 _____P________ -1 -4.54087 57.4008 99 6 245
1862284S04059 1863 25 SI MM NOT_NAMED 1862-10-12 15:00:00 NR -4.66948 57.1210 main 1193 1161 _____P________ -1 -4.66948 57.1210 99 6 245
1862284S04059 1863 25 SI MM NOT_NAMED 1862-10-12 18:00:00 NR -4.80038 56.8303 main 1161 1138 _____P________ -1 -4.80038 56.8303 99 6 246
1862284S04059 1863 25 SI MM NOT_NAMED 1862-10-12 21:00:00 NR -4.93122 56.5358 main 1130 1098 _____P________ -1 -4.93122 56.5358 99 6 246
1862284S04059 1863 25 SI MM NOT_NAMED 1862-10-13 00:00:00 NR -5.05965 56.2445 main 1091 1067 _____P________ -1 -5.05965 56.2445 99 6 246
1862284S04059 1863 25 SI MM NOT_NAMED 1862-10-13 03:00:00 NR -5.18335 55.9636 main 1067 1036 _____P________ -1 -5.18335 55.9636 99 6 246
1862284S04059 1863 25 SI MM NOT_NAMED 1862-10-13 06:00:00 NR -5.30000 55.7000 reunion main 1036 1013 _____O________ -1 -5.30000 55.7000 99 9.90000 6 246
1862284S04059 1863 25 SI MM NOT_NAMED 1862-10-13 09:00:00 NR -5.40788 55.4591 main 1013 990 _____P________ -1 -5.40788 55.4591 99 5 246
1862284S04059 1863 25 SI MM NOT_NAMED 1862-10-13 12:00:00 NR -5.50760 55.2396 main 983 960 _____P________ -1 -5.50760 55.2396 99 5 245
1862284S04059 1863 25 SI MM NOT_NAMED 1862-10-13 15:00:00 NR -5.60034 55.0384 main 960 944 _____P________ -1 -5.60034 55.0384 99 4 245
1862284S04059 1863 25 SI MM NOT_NAMED 1862-10-13 18:00:00 NR -5.68726 54.8525 main 944 922 _____P________ -1 -5.68726 54.8525 99 4 245
1862284S04059 1863 25 SI MM NOT_NAMED 1862-10-13 21:00:00 NR -5.76953 54.6787 main 922 908 _____P________ -1 -5.76953 54.6787 99 4 244
1862284S04059 1863 25 SI MM NOT_NAMED 1862-10-14 00:00:00 NR -5.84830 54.5141 main 908 892 _____P________ -1 -5.84830 54.5141 99 4 244
1862284S04059 1863 25 SI MM NOT_NAMED 1862-10-14 03:00:00 NR -5.92475 54.3555 main 892 869 _____P________ -1 -5.92475 54.3555 99 3 244
1862284S04059 1863 25 SI MM NOT_NAMED 1862-10-14 06:00:00 NR -6.00000 54.2000 reunion main 869 _____O________ -1 -6.00000 54.2000 99 9.90000 3 244

About IBTrACS Database

This database is a web-friendly format of International Best Track Archive for Climate Stewardship (IBTrACS), a global best track data archive curated by NOAA dating back to 1842.

Updated: 2021-10-08